sensor_id;sensor_type;location;lat;lon;timestamp;pressure;altitude;pressure_sealevel;temperature;humidity
60061;BME280;45933;51.336;12.612;2022-12-07T00:01:13;99717.47;;;4.10;71.11
60061;BME280;45933;51.336;12.612;2022-12-07T00:03:41;99718.34;;;4.09;71.19
60061;BME280;45933;51.336;12.612;2022-12-07T00:06:08;99722.63;;;4.10;71.07
60061;BME280;45933;51.336;12.612;2022-12-07T00:08:35;99715.75;;;4.07;70.94
60061;BME280;45933;51.336;12.612;2022-12-07T00:11:05;99715.75;;;4.07;71.05
60061;BME280;45933;51.336;12.612;2022-12-07T00:13:32;99716.53;;;4.05;70.98
60061;BME280;45933;51.336;12.612;2022-12-07T00:16:06;99714.88;;;4.07;70.80
60061;BME280;45933;51.336;12.612;2022-12-07T00:18:32;99718.25;;;4.01;70.61
60061;BME280;45933;51.336;12.612;2022-12-07T00:21:05;99704.44;;;4.01;70.97
60061;BME280;45933;51.336;12.612;2022-12-07T00:23:32;99706.94;;;3.94;70.84
60061;BME280;45933;51.336;12.612;2022-12-07T00:26:12;99693.22;;;3.96;70.75
60061;BME280;45933;51.336;12.612;2022-12-07T00:28:38;99700.03;;;3.92;70.74
60061;BME280;45933;51.336;12.612;2022-12-07T00:31:11;99700.91;;;3.92;70.85
60061;BME280;45933;51.336;12.612;2022-12-07T00:33:37;99693.09;;;3.86;70.75
60061;BME280;45933;51.336;12.612;2022-12-07T00:36:06;99692.25;;;3.89;70.71
60061;BME280;45933;51.336;12.612;2022-12-07T00:38:34;99697.38;;;3.87;70.82
60061;BME280;45933;51.336;12.612;2022-12-07T00:41:04;99695.66;;;3.86;70.78
60061;BME280;45933;51.336;12.612;2022-12-07T00:43:30;99694.72;;;3.83;70.46
60061;BME280;45933;51.336;12.612;2022-12-07T00:45:56;99686.06;;;3.78;70.38
60061;BME280;45933;51.336;12.612;2022-12-07T00:48:22;99683.47;;;3.76;70.15
60061;BME280;45933;51.336;12.612;2022-12-07T00:50:48;99680.81;;;3.73;70.21
60061;BME280;45933;51.336;12.612;2022-12-07T00:53:14;99682.53;;;3.71;70.19
60061;BME280;45933;51.336;12.612;2022-12-07T00:55:40;99683.31;;;3.67;70.29
60061;BME280;45933;51.336;12.612;2022-12-07T00:58:05;99679.81;;;3.63;70.57
60061;BME280;45933;51.336;12.612;2022-12-07T01:00:31;99684.06;;;3.60;70.51
60061;BME280;45933;51.336;12.612;2022-12-07T01:02:56;99680.56;;;3.55;70.87
60061;BME280;45933;51.336;12.612;2022-12-07T01:05:22;99686.59;;;3.58;70.86
60061;BME280;45933;51.336;12.612;2022-12-07T01:07:47;99677.97;;;3.55;71.27
60061;BME280;45933;51.336;12.612;2022-12-07T01:10:15;99679.69;;;3.54;71.02
60061;BME280;45933;51.336;12.612;2022-12-07T01:12:40;99678.78;;;3.52;71.02
60061;BME280;45933;51.336;12.612;2022-12-07T01:15:07;99680.50;;;3.52;71.02
60061;BME280;45933;51.336;12.612;2022-12-07T01:17:33;99679.59;;;3.48;70.78
60061;BME280;45933;51.336;12.612;2022-12-07T01:19:58;99677.03;;;3.48;70.56
60061;BME280;45933;51.336;12.612;2022-12-07T01:22:23;99675.25;;;3.46;70.56
60061;BME280;45933;51.336;12.612;2022-12-07T01:24:49;99670.06;;;3.44;70.59
60061;BME280;45933;51.336;12.612;2022-12-07T01:27:14;99670.00;;;3.39;70.40
60061;BME280;45933;51.336;12.612;2022-12-07T01:29:39;99671.69;;;3.37;70.07
60061;BME280;45933;51.336;12.612;2022-12-07T01:32:05;99673.31;;;3.32;70.16
60061;BME280;45933;51.336;12.612;2022-12-07T01:34:31;99665.50;;;3.28;70.15
60061;BME280;45933;51.336;12.612;2022-12-07T01:36:57;99673.16;;;3.25;70.12
60061;BME280;45933;51.336;12.612;2022-12-07T01:39:22;99667.09;;;3.21;69.92
60061;BME280;45933;51.336;12.612;2022-12-07T01:41:48;99676.38;;;3.11;70.10
60061;BME280;45933;51.336;12.612;2022-12-07T01:44:22;99665.31;;;3.17;70.11
60061;BME280;45933;51.336;12.612;2022-12-07T01:46:56;99658.41;;;3.14;69.97
60061;BME280;45933;51.336;12.612;2022-12-07T01:49:27;99670.31;;;3.08;69.90
60061;BME280;45933;51.336;12.612;2022-12-07T01:54:35;99664.22;;;3.03;69.92
60061;BME280;45933;51.336;12.612;2022-12-07T01:57:02;99659.91;;;3.02;69.71
60061;BME280;45933;51.336;12.612;2022-12-07T01:59:28;99646.13;;;3.00;69.57
60061;BME280;45933;51.336;12.612;2022-12-07T02:01:54;99652.88;;;2.95;69.71
60061;BME280;45933;51.336;12.612;2022-12-07T02:04:21;99654.50;;;2.89;69.83
60061;BME280;45933;51.336;12.612;2022-12-07T02:06:47;99651.88;;;2.85;69.71
60061;BME280;45933;51.336;12.612;2022-12-07T02:09:13;99653.44;;;2.78;69.54
60061;BME280;45933;51.336;12.612;2022-12-07T02:11:38;99650.88;;;2.78;69.63
60061;BME280;45933;51.336;12.612;2022-12-07T02:14:04;99648.22;;;2.74;69.53
60061;BME280;45933;51.336;12.612;2022-12-07T02:21:53;99634.47;;;2.73;69.50
60061;BME280;45933;51.336;12.612;2022-12-07T02:35:15;99629.00;;;2.55;69.41
60061;BME280;45933;51.336;12.612;2022-12-07T02:38:03;99622.22;;;2.58;69.34
60061;BME280;45933;51.336;12.612;2022-12-07T02:40:38;99626.41;;;2.53;69.53
60061;BME280;45933;51.336;12.612;2022-12-07T02:43:27;99616.03;;;2.50;69.56
60061;BME280;45933;51.336;12.612;2022-12-07T02:45:57;99609.13;;;2.48;69.65
60061;BME280;45933;51.336;12.612;2022-12-07T02:48:26;99603.84;;;2.42;69.66
60061;BME280;45933;51.336;12.612;2022-12-07T02:50:52;99608.22;;;2.44;69.48
60061;BME280;45933;51.336;12.612;2022-12-07T02:53:37;99611.66;;;2.46;69.64
60061;BME280;45933;51.336;12.612;2022-12-07T02:56:13;99603.97;;;2.48;69.57
60061;BME280;45933;51.336;12.612;2022-12-07T03:01:37;99592.75;;;2.43;69.33
60061;BME280;45933;51.336;12.612;2022-12-07T03:12:32;99585.72;;;2.34;69.30
60061;BME280;45933;51.336;12.612;2022-12-07T03:15:10;99586.50;;;2.31;69.48
60061;BME280;45933;51.336;12.612;2022-12-07T03:17:39;99582.28;;;2.33;69.32
60061;BME280;45933;51.336;12.612;2022-12-07T03:20:09;99589.94;;;2.32;69.29
60061;BME280;45933;51.336;12.612;2022-12-07T03:22:38;99589.06;;;2.30;69.23
60061;BME280;45933;51.336;12.612;2022-12-07T03:25:09;99589.91;;;2.29;69.49
60061;BME280;45933;51.336;12.612;2022-12-07T03:27:53;99583.06;;;2.31;69.44
60061;BME280;45933;51.336;12.612;2022-12-07T03:30:23;99586.44;;;2.27;69.20
60061;BME280;45933;51.336;12.612;2022-12-07T03:32:58;99579.59;;;2.27;69.53
60061;BME280;45933;51.336;12.612;2022-12-07T03:35:44;99579.53;;;2.26;69.46
60061;BME280;45933;51.336;12.612;2022-12-07T03:38:19;99573.53;;;2.25;69.27
60061;BME280;45933;51.336;12.612;2022-12-07T03:40:54;99571.03;;;2.28;69.29
60061;BME280;45933;51.336;12.612;2022-12-07T03:43:24;99562.38;;;2.25;69.13
60061;BME280;45933;51.336;12.612;2022-12-07T03:48:36;99550.47;;;2.30;69.36
60061;BME280;45933;51.336;12.612;2022-12-07T03:51:13;99557.31;;;2.28;69.43
60061;BME280;45933;51.336;12.612;2022-12-07T03:53:50;99553.13;;;2.33;69.48
60061;BME280;45933;51.336;12.612;2022-12-07T03:56:18;99548.78;;;2.32;69.51
60061;BME280;45933;51.336;12.612;2022-12-07T03:58:44;99547.91;;;2.30;69.79
60061;BME280;45933;51.336;12.612;2022-12-07T04:01:09;99554.00;;;2.33;69.47
60061;BME280;45933;51.336;12.612;2022-12-07T04:03:35;99552.38;;;2.39;69.52
60061;BME280;45933;51.336;12.612;2022-12-07T04:06:00;99552.38;;;2.40;69.40
60061;BME280;45933;51.336;12.612;2022-12-07T04:08:26;99543.91;;;2.46;69.49
60061;BME280;45933;51.336;12.612;2022-12-07T04:10:51;99544.84;;;2.49;69.19
60061;BME280;45933;51.336;12.612;2022-12-07T04:13:16;99544.03;;;2.52;69.36
60061;BME280;45933;51.336;12.612;2022-12-07T04:15:42;99540.66;;;2.54;69.25
60061;BME280;45933;51.336;12.612;2022-12-07T04:18:07;99545.75;;;2.53;69.00
60061;BME280;45933;51.336;12.612;2022-12-07T04:20:32;99536.38;;;2.56;69.24
60061;BME280;45933;51.336;12.612;2022-12-07T04:22:58;99534.75;;;2.61;69.25
60061;BME280;45933;51.336;12.612;2022-12-07T04:25:23;99533.13;;;2.65;69.10
60061;BME280;45933;51.336;12.612;2022-12-07T04:27:48;99527.94;;;2.63;69.00
60061;BME280;45933;51.336;12.612;2022-12-07T04:30:14;99527.97;;;2.65;69.11
60061;BME280;45933;51.336;12.612;2022-12-07T04:32:39;99520.19;;;2.63;69.09
60061;BME280;45933;51.336;12.612;2022-12-07T04:35:05;99517.69;;;2.67;69.06
60061;BME280;45933;51.336;12.612;2022-12-07T04:37:30;99516.06;;;2.70;68.88
60061;BME280;45933;51.336;12.612;2022-12-07T04:39:55;99513.50;;;2.72;69.06
60061;BME280;45933;51.336;12.612;2022-12-07T04:42:21;99511.69;;;2.68;69.15
60061;BME280;45933;51.336;12.612;2022-12-07T04:44:46;99510.06;;;2.73;69.28
60061;BME280;45933;51.336;12.612;2022-12-07T04:47:11;99506.63;;;2.71;69.14
60061;BME280;45933;51.336;12.612;2022-12-07T04:49:37;99513.56;;;2.76;69.18
60061;BME280;45933;51.336;12.612;2022-12-07T04:52:02;99516.84;;;2.68;69.20
60061;BME280;45933;51.336;12.612;2022-12-07T04:54:27;99509.13;;;2.68;69.39
60061;BME280;45933;51.336;12.612;2022-12-07T04:56:53;99509.22;;;2.72;69.46
60061;BME280;45933;51.336;12.612;2022-12-07T04:59:18;99498.97;;;2.75;69.43
60061;BME280;45933;51.336;12.612;2022-12-07T05:01:43;99500.72;;;2.76;69.37
60061;BME280;45933;51.336;12.612;2022-12-07T05:04:09;99496.41;;;2.77;69.45
60061;BME280;45933;51.336;12.612;2022-12-07T05:06:34;99495.47;;;2.70;69.80
60061;BME280;45933;51.336;12.612;2022-12-07T05:09:01;99486.13;;;2.78;69.71
60061;BME280;45933;51.336;12.612;2022-12-07T05:11:27;99492.13;;;2.76;69.85
60061;BME280;45933;51.336;12.612;2022-12-07T05:14:16;99487.91;;;2.81;69.98
60061;BME280;45933;51.336;12.612;2022-12-07T05:16:42;99487.78;;;2.73;70.28
60061;BME280;45933;51.336;12.612;2022-12-07T05:19:09;99493.00;;;2.78;70.26
60061;BME280;45933;51.336;12.612;2022-12-07T05:21:35;99487.91;;;2.81;70.08
60061;BME280;45933;51.336;12.612;2022-12-07T05:24:01;99492.22;;;2.82;70.17
60061;BME280;45933;51.336;12.612;2022-12-07T05:26:26;99495.56;;;2.78;70.31
60061;BME280;45933;51.336;12.612;2022-12-07T05:28:53;99490.50;;;2.81;70.37
60061;BME280;45933;51.336;12.612;2022-12-07T05:31:19;99481.91;;;2.80;70.09
60061;BME280;45933;51.336;12.612;2022-12-07T05:33:44;99482.78;;;2.84;70.07
60061;BME280;45933;51.336;12.612;2022-12-07T05:36:10;99479.41;;;2.85;70.24
60061;BME280;45933;51.336;12.612;2022-12-07T05:38:35;99481.09;;;2.84;70.58
60061;BME280;45933;51.336;12.612;2022-12-07T05:41:05;99474.28;;;2.88;70.62
60061;BME280;45933;51.336;12.612;2022-12-07T05:43:32;99472.56;;;2.85;70.72
60061;BME280;45933;51.336;12.612;2022-12-07T05:45:57;99479.44;;;2.86;70.90
60061;BME280;45933;51.336;12.612;2022-12-07T05:48:23;99478.56;;;2.87;71.09
60061;BME280;45933;51.336;12.612;2022-12-07T05:50:49;99472.56;;;2.88;71.14
60061;BME280;45933;51.336;12.612;2022-12-07T05:53:15;99469.19;;;2.91;71.32
60061;BME280;45933;51.336;12.612;2022-12-07T05:55:40;99473.50;;;2.94;71.28
60061;BME280;45933;51.336;12.612;2022-12-07T05:58:05;99471.81;;;2.94;71.58
60061;BME280;45933;51.336;12.612;2022-12-07T06:00:49;99471.00;;;2.97;72.01
60061;BME280;45933;51.336;12.612;2022-12-07T06:03:15;99467.56;;;2.96;72.18
60061;BME280;45933;51.336;12.612;2022-12-07T06:05:40;99470.94;;;2.95;72.19
60061;BME280;45933;51.336;12.612;2022-12-07T06:08:05;99469.28;;;2.97;72.47
60061;BME280;45933;51.336;12.612;2022-12-07T06:10:30;99467.63;;;3.01;72.41
60061;BME280;45933;51.336;12.612;2022-12-07T06:12:56;99464.25;;;3.05;72.25
60061;BME280;45933;51.336;12.612;2022-12-07T06:15:21;99466.00;;;3.07;72.11
60061;BME280;45933;51.336;12.612;2022-12-07T06:17:48;99465.25;;;3.14;72.16
60061;BME280;45933;51.336;12.612;2022-12-07T06:20:13;99464.44;;;3.17;72.06
60061;BME280;45933;51.336;12.612;2022-12-07T06:22:38;99463.50;;;3.13;72.11
60061;BME280;45933;51.336;12.612;2022-12-07T06:25:04;99462.78;;;3.22;72.02
60061;BME280;45933;51.336;12.612;2022-12-07T06:27:29;99468.75;;;3.21;72.03
60061;BME280;45933;51.336;12.612;2022-12-07T06:29:55;99466.25;;;3.24;71.86
60061;BME280;45933;51.336;12.612;2022-12-07T06:32:20;99469.72;;;3.28;71.98
60061;BME280;45933;51.336;12.612;2022-12-07T06:34:45;99468.03;;;3.31;71.78
60061;BME280;45933;51.336;12.612;2022-12-07T06:37:12;99466.31;;;3.30;71.97
60061;BME280;45933;51.336;12.612;2022-12-07T06:39:37;99468.09;;;3.33;71.93
60061;BME280;45933;51.336;12.612;2022-12-07T06:42:03;99474.03;;;3.29;72.16
60061;BME280;45933;51.336;12.612;2022-12-07T06:44:29;99473.25;;;3.36;71.62
60061;BME280;45933;51.336;12.612;2022-12-07T06:46:55;99465.44;;;3.28;72.34
60061;BME280;45933;51.336;12.612;2022-12-07T06:49:21;99473.19;;;3.30;72.27
60061;BME280;45933;51.336;12.612;2022-12-07T06:51:46;99473.25;;;3.34;71.66
60061;BME280;45933;51.336;12.612;2022-12-07T06:54:13;99465.59;;;3.37;71.46
60061;BME280;45933;51.336;12.612;2022-12-07T06:56:40;99470.69;;;3.36;71.10
60061;BME280;45933;51.336;12.612;2022-12-07T06:59:06;99481.84;;;3.35;71.29
60061;BME280;45933;51.336;12.612;2022-12-07T07:01:33;99485.22;;;3.31;71.50
60061;BME280;45933;51.336;12.612;2022-12-07T07:03:59;99488.63;;;3.28;71.64
60061;BME280;45933;51.336;12.612;2022-12-07T07:06:24;99492.13;;;3.33;71.48
60061;BME280;45933;51.336;12.612;2022-12-07T07:08:50;99486.94;;;3.30;71.77
60061;BME280;45933;51.336;12.612;2022-12-07T07:11:15;99469.75;;;3.29;71.95
60061;BME280;45933;51.336;12.612;2022-12-07T07:13:41;99484.41;;;3.35;71.60
60061;BME280;45933;51.336;12.612;2022-12-07T07:16:06;99488.63;;;3.28;72.16
60061;BME280;45933;51.336;12.612;2022-12-07T07:18:32;99488.72;;;3.34;71.84
60061;BME280;45933;51.336;12.612;2022-12-07T07:20:57;99487.00;;;3.35;72.12
60061;BME280;45933;51.336;12.612;2022-12-07T07:23:23;99486.19;;;3.37;71.94
60061;BME280;45933;51.336;12.612;2022-12-07T07:25:49;99488.72;;;3.36;72.15
60061;BME280;45933;51.336;12.612;2022-12-07T07:28:15;99492.16;;;3.35;72.32
60061;BME280;45933;51.336;12.612;2022-12-07T07:30:40;99488.84;;;3.45;71.98
60061;BME280;45933;51.336;12.612;2022-12-07T07:33:05;99492.28;;;3.46;72.24
60061;BME280;45933;51.336;12.612;2022-12-07T07:35:33;99501.78;;;3.48;72.11
60061;BME280;45933;51.336;12.612;2022-12-07T07:37:58;99489.78;;;3.50;72.39
60061;BME280;45933;51.336;12.612;2022-12-07T07:40:24;99500.97;;;3.51;72.09
60061;BME280;45933;51.336;12.612;2022-12-07T07:42:51;99497.53;;;3.52;72.18
60061;BME280;45933;51.336;12.612;2022-12-07T07:45:18;99498.38;;;3.52;72.22
60061;BME280;45933;51.336;12.612;2022-12-07T07:47:44;99512.91;;;3.46;72.56
60061;BME280;45933;51.336;12.612;2022-12-07T07:50:09;99502.75;;;3.56;72.15
60061;BME280;45933;51.336;12.612;2022-12-07T07:52:35;99507.97;;;3.61;71.91
60061;BME280;45933;51.336;12.612;2022-12-07T07:55:00;99497.59;;;3.56;72.20
60061;BME280;45933;51.336;12.612;2022-12-07T07:57:26;99499.44;;;3.65;71.90
60061;BME280;45933;51.336;12.612;2022-12-07T07:59:52;99520.13;;;3.71;71.75
60061;BME280;45933;51.336;12.612;2022-12-07T08:02:19;99504.66;;;3.70;71.72
60061;BME280;45933;51.336;12.612;2022-12-07T08:04:44;99505.53;;;3.73;71.60
60061;BME280;45933;51.336;12.612;2022-12-07T08:07:10;99505.59;;;3.78;71.50
60061;BME280;45933;51.336;12.612;2022-12-07T08:09:36;99507.38;;;3.83;71.51
60061;BME280;45933;51.336;12.612;2022-12-07T08:12:01;99507.38;;;3.83;71.46
60061;BME280;45933;51.336;12.612;2022-12-07T08:14:27;99506.66;;;3.95;71.27
60061;BME280;45933;51.336;12.612;2022-12-07T08:16:54;99507.63;;;4.05;70.93
60061;BME280;45933;51.336;12.612;2022-12-07T08:19:19;99508.53;;;4.07;70.34
60061;BME280;45933;51.336;12.612;2022-12-07T08:21:44;99502.59;;;4.14;70.08
60061;BME280;45933;51.336;12.612;2022-12-07T08:24:10;99506.88;;;4.12;69.92
60061;BME280;45933;51.336;12.612;2022-12-07T08:26:35;99505.97;;;4.10;69.95
60061;BME280;45933;51.336;12.612;2022-12-07T08:29:00;99499.16;;;4.15;69.79
60061;BME280;45933;51.336;12.612;2022-12-07T08:31:26;99510.28;;;4.11;69.99
60061;BME280;45933;51.336;12.612;2022-12-07T08:33:53;99511.13;;;4.08;70.05
60061;BME280;45933;51.336;12.612;2022-12-07T08:36:18;99495.66;;;4.10;70.16
60061;BME280;45933;51.336;12.612;2022-12-07T08:38:44;99491.41;;;4.12;70.42
60061;BME280;45933;51.336;12.612;2022-12-07T08:41:09;99494.91;;;4.17;70.70
60061;BME280;45933;51.336;12.612;2022-12-07T08:43:35;99488.13;;;4.30;70.83
60061;BME280;45933;51.336;12.612;2022-12-07T08:46:19;99494.22;;;4.35;70.72
60061;BME280;45933;51.336;12.612;2022-12-07T08:48:47;99493.34;;;4.33;69.89
60061;BME280;45933;51.336;12.612;2022-12-07T08:51:14;99498.59;;;4.43;70.15
60061;BME280;45933;51.336;12.612;2022-12-07T08:53:40;99501.25;;;4.51;70.00
60061;BME280;45933;51.336;12.612;2022-12-07T08:56:07;99496.94;;;4.52;69.79
60061;BME280;45933;51.336;12.612;2022-12-07T08:58:33;99501.28;;;4.56;69.58
60061;BME280;45933;51.336;12.612;2022-12-07T09:00:59;99503.06;;;4.60;69.23
60061;BME280;45933;51.336;12.612;2022-12-07T09:03:25;99495.34;;;4.64;69.10
60061;BME280;45933;51.336;12.612;2022-12-07T09:05:50;99500.53;;;4.66;69.04
60061;BME280;45933;51.336;12.612;2022-12-07T09:08:17;99502.22;;;4.64;69.26
60061;BME280;45933;51.336;12.612;2022-12-07T09:10:42;99510.00;;;4.68;69.08
60061;BME280;45933;51.336;12.612;2022-12-07T09:13:07;99509.09;;;4.63;69.36
60061;BME280;45933;51.336;12.612;2022-12-07T09:15:33;99496.28;;;4.69;69.02
60061;BME280;45933;51.336;12.612;2022-12-07T09:17:58;99503.16;;;4.72;69.15
60061;BME280;45933;51.336;12.612;2022-12-07T09:20:23;99510.09;;;4.75;69.21
60061;BME280;45933;51.336;12.612;2022-12-07T09:22:49;99518.66;;;4.70;69.26
60061;BME280;45933;51.336;12.612;2022-12-07T09:25:14;99519.50;;;4.74;68.90
60061;BME280;45933;51.336;12.612;2022-12-07T09:27:39;99521.28;;;4.75;68.80
60061;BME280;45933;51.336;12.612;2022-12-07T09:30:06;99509.19;;;4.74;69.33
60061;BME280;45933;51.336;12.612;2022-12-07T09:32:32;99516.97;;;4.79;69.08
60061;BME280;45933;51.336;12.612;2022-12-07T09:34:57;99499.75;;;4.78;69.09
60061;BME280;45933;51.336;12.612;2022-12-07T09:37:23;99504.94;;;4.79;69.06
60061;BME280;45933;51.336;12.612;2022-12-07T09:39:48;99505.88;;;4.86;69.23
60061;BME280;45933;51.336;12.612;2022-12-07T09:42:49;99507.66;;;4.96;69.16
60061;BME280;45933;51.336;12.612;2022-12-07T09:45:35;99505.94;;;4.96;69.09
60061;BME280;45933;51.336;12.612;2022-12-07T09:48:02;99500.75;;;4.92;69.14
60061;BME280;45933;51.336;12.612;2022-12-07T09:50:29;99499.03;;;4.92;69.14
60061;BME280;45933;51.336;12.612;2022-12-07T09:53:24;99496.53;;;5.05;69.03
60061;BME280;45933;51.336;12.612;2022-12-07T09:55:47;99497.34;;;4.99;68.87
60061;BME280;45933;51.336;12.612;2022-12-07T09:58:22;99496.56;;;5.08;69.17
60061;BME280;45933;51.336;12.612;2022-12-07T10:00:51;99494.75;;;4.97;69.05
60061;BME280;45933;51.336;12.612;2022-12-07T10:03:18;99491.34;;;5.05;69.21
60061;BME280;45933;51.336;12.612;2022-12-07T10:05:49;99488.81;;;5.06;69.44
60061;BME280;45933;51.336;12.612;2022-12-07T10:08:16;99493.06;;;5.03;69.37
60061;BME280;45933;51.336;12.612;2022-12-07T10:10:43;99493.06;;;5.01;69.59
60061;BME280;45933;51.336;12.612;2022-12-07T10:13:13;99490.50;;;5.01;69.74
60061;BME280;45933;51.336;12.612;2022-12-07T10:15:54;99492.13;;;4.94;69.66
60061;BME280;45933;51.336;12.612;2022-12-07T10:18:21;99484.34;;;4.90;69.72
60061;BME280;45933;51.336;12.612;2022-12-07T10:21:00;99479.22;;;4.93;69.75
60061;BME280;45933;51.336;12.612;2022-12-07T10:23:26;99488.66;;;4.89;69.92
60061;BME280;45933;51.336;12.612;2022-12-07T10:25:51;99489.50;;;4.88;69.86
60061;BME280;45933;51.336;12.612;2022-12-07T10:28:20;99478.31;;;4.89;70.34
60061;BME280;45933;51.336;12.612;2022-12-07T10:31:01;99474.06;;;4.94;70.33
60061;BME280;45933;51.336;12.612;2022-12-07T10:36:21;99481.00;;;4.98;70.25
60061;BME280;45933;51.336;12.612;2022-12-07T10:38:50;99479.22;;;4.93;70.49
60061;BME280;45933;51.336;12.612;2022-12-07T10:41:15;99479.25;;;4.96;70.55
60061;BME280;45933;51.336;12.612;2022-12-07T10:43:49;99478.38;;;4.92;70.66
60061;BME280;45933;51.336;12.612;2022-12-07T10:55:22;99468.19;;;5.15;70.28
60061;BME280;45933;51.336;12.612;2022-12-07T10:57:56;99469.03;;;5.16;70.17
60061;BME280;45933;51.336;12.612;2022-12-07T11:00:36;99462.16;;;5.12;70.14
60061;BME280;45933;51.336;12.612;2022-12-07T11:06:06;99452.75;;;5.32;69.99
60061;BME280;45933;51.336;12.612;2022-12-07T11:08:55;99450.19;;;5.32;69.20
60061;BME280;45933;51.336;12.612;2022-12-07T11:14:19;99453.66;;;5.33;69.21
60061;BME280;45933;51.336;12.612;2022-12-07T11:22:16;99453.69;;;5.39;68.83
60061;BME280;45933;51.336;12.612;2022-12-07T11:24:59;99439.06;;;5.45;68.87
60061;BME280;45933;51.336;12.612;2022-12-07T11:27:45;99448.56;;;5.49;68.65
60061;BME280;45933;51.336;12.612;2022-12-07T11:30:18;99443.41;;;5.49;68.64
60061;BME280;45933;51.336;12.612;2022-12-07T11:33:19;99448.56;;;5.49;68.37
60061;BME280;45933;51.336;12.612;2022-12-07T11:35:56;99445.94;;;5.42;67.75
60061;BME280;45933;51.336;12.612;2022-12-07T11:38:39;99443.38;;;5.45;67.86
60061;BME280;45933;51.336;12.612;2022-12-07T11:41:08;99451.97;;;5.39;67.60
60061;BME280;45933;51.336;12.612;2022-12-07T11:44:05;99453.66;;;5.37;67.19
60061;BME280;45933;51.336;12.612;2022-12-07T11:49:45;99445.06;;;5.38;67.74
60061;BME280;45933;51.336;12.612;2022-12-07T11:52:45;99447.66;;;5.40;68.08
60061;BME280;45933;51.336;12.612;2022-12-07T12:03:47;99444.13;;;5.22;68.63
60061;BME280;45933;51.336;12.612;2022-12-07T12:06:13;99447.53;;;5.18;68.96
60061;BME280;45933;51.336;12.612;2022-12-07T12:08:45;99444.09;;;5.18;69.21
60061;BME280;45933;51.336;12.612;2022-12-07T12:21:49;99432.09;;;5.28;69.49
60061;BME280;45933;51.336;12.612;2022-12-07T12:24:22;99428.69;;;5.35;69.37
60061;BME280;45933;51.336;12.612;2022-12-07T12:26:53;99423.50;;;5.35;68.97
60061;BME280;45933;51.336;12.612;2022-12-07T12:32:11;99421.00;;;5.50;69.14
60061;BME280;45933;51.336;12.612;2022-12-07T12:42:57;99414.16;;;5.64;68.94
60061;BME280;45933;51.336;12.612;2022-12-07T12:45:26;99411.59;;;5.72;68.88
60061;BME280;45933;51.336;12.612;2022-12-07T12:48:01;99409.03;;;5.75;68.58
60061;BME280;45933;51.336;12.612;2022-12-07T12:50:34;99408.16;;;5.85;68.60
60061;BME280;45933;51.336;12.612;2022-12-07T12:53:14;99417.69;;;5.91;68.52
60061;BME280;45933;51.336;12.612;2022-12-07T13:00:45;99398.72;;;5.86;67.16
60061;BME280;45933;51.336;12.612;2022-12-07T13:03:29;99393.53;;;5.89;67.16
60061;BME280;45933;51.336;12.612;2022-12-07T13:08:55;99395.25;;;5.88;66.63
60061;BME280;45933;51.336;12.612;2022-12-07T13:11:29;99391.78;;;5.85;66.82
60061;BME280;45933;51.336;12.612;2022-12-07T13:17:00;99403.88;;;5.83;65.71
60061;BME280;45933;51.336;12.612;2022-12-07T13:28:23;99384.09;;;5.97;66.28
60061;BME280;45933;51.336;12.612;2022-12-07T13:33:39;99384.88;;;5.85;65.53
60061;BME280;45933;51.336;12.612;2022-12-07T13:36:14;99379.72;;;5.84;65.29
60061;BME280;45933;51.336;12.612;2022-12-07T13:38:50;99377.19;;;5.93;65.30
60061;BME280;45933;51.336;12.612;2022-12-07T13:41:17;99378.00;;;5.89;65.43
60061;BME280;45933;51.336;12.612;2022-12-07T13:49:31;99379.78;;;5.93;65.08
60061;BME280;45933;51.336;12.612;2022-12-07T13:52:14;99378.00;;;5.89;64.50
60061;BME280;45933;51.336;12.612;2022-12-07T13:54:49;99374.56;;;5.88;65.19
60061;BME280;45933;51.336;12.612;2022-12-07T13:57:16;99374.56;;;5.84;64.45
60061;BME280;45933;51.336;12.612;2022-12-07T13:59:42;99390.09;;;5.81;64.12
60061;BME280;45933;51.336;12.612;2022-12-07T14:04:50;99382.31;;;5.84;64.64
60061;BME280;45933;51.336;12.612;2022-12-07T14:07:20;99386.63;;;5.88;64.58
60061;BME280;45933;51.336;12.612;2022-12-07T14:10:05;99379.78;;;5.94;64.44
60061;BME280;45933;51.336;12.612;2022-12-07T14:12:32;99384.09;;;5.94;64.44
60061;BME280;45933;51.336;12.612;2022-12-07T14:15:01;99385.75;;;5.90;64.71
60061;BME280;45933;51.336;12.612;2022-12-07T14:17:27;99384.06;;;5.88;64.38
60061;BME280;45933;51.336;12.612;2022-12-07T14:19:57;99381.44;;;5.85;63.67
60061;BME280;45933;51.336;12.612;2022-12-07T14:24:58;99390.94;;;5.83;63.81
60061;BME280;45933;51.336;12.612;2022-12-07T14:27:24;99382.31;;;5.81;64.42
60061;BME280;45933;51.336;12.612;2022-12-07T14:29:55;99398.69;;;5.75;63.91
60061;BME280;45933;51.336;12.612;2022-12-07T14:32:24;99394.38;;;5.80;64.34
60061;BME280;45933;51.336;12.612;2022-12-07T14:35:10;99393.50;;;5.75;63.79
60061;BME280;45933;51.336;12.612;2022-12-07T14:37:37;99384.88;;;5.70;63.61
60061;BME280;45933;51.336;12.612;2022-12-07T14:40:03;99384.00;;;5.66;63.47
60061;BME280;45933;51.336;12.612;2022-12-07T14:42:30;99387.41;;;5.62;63.41
60061;BME280;45933;51.336;12.612;2022-12-07T14:44:56;99383.97;;;5.63;63.48
60061;BME280;45933;51.336;12.612;2022-12-07T14:47:23;99377.91;;;5.58;63.41
60061;BME280;45933;51.336;12.612;2022-12-07T14:49:48;99390.84;;;5.52;63.07
60061;BME280;45933;51.336;12.612;2022-12-07T14:52:27;99383.97;;;5.54;63.65
60061;BME280;45933;51.336;12.612;2022-12-07T14:54:53;99390.81;;;5.44;63.40
60061;BME280;45933;51.336;12.612;2022-12-07T14:57:19;99384.78;;;5.47;63.67
60061;BME280;45933;51.336;12.612;2022-12-07T14:59:44;99388.22;;;5.41;63.82
60061;BME280;45933;51.336;12.612;2022-12-07T15:02:14;99386.50;;;5.39;63.79
60061;BME280;45933;51.336;12.612;2022-12-07T15:04:40;99389.91;;;5.36;63.87
60061;BME280;45933;51.336;12.612;2022-12-07T15:07:10;99389.03;;;5.36;64.20
60061;BME280;45933;51.336;12.612;2022-12-07T15:09:37;99389.03;;;5.28;63.52
60061;BME280;45933;51.336;12.612;2022-12-07T15:12:03;99378.66;;;5.25;63.85